createdAt,value
2023-01-18T00:01:19.382Z,17.50
2023-01-18T00:04:08.950Z,17.50
2023-01-18T00:06:57.738Z,17.40
2023-01-18T00:09:45.726Z,17.40
2023-01-18T00:12:34.567Z,17.40
2023-01-18T00:15:22.567Z,17.40
2023-01-18T00:18:10.567Z,18.40
2023-01-18T00:21:03.028Z,17.80
2023-01-18T00:23:51.288Z,17.80
2023-01-18T00:26:39.283Z,17.90
2023-01-18T00:29:27.293Z,18.00
2023-01-18T00:32:16.887Z,18.00
2023-01-18T00:35:07.515Z,18.20
2023-01-18T00:37:56.809Z,18.20
2023-01-18T00:40:46.091Z,18.10
2023-01-18T00:43:39.270Z,18.20
2023-01-18T00:46:28.217Z,18.10
2023-01-18T00:49:16.292Z,18.00
2023-01-18T00:52:04.506Z,18.00
2023-01-18T00:54:53.843Z,18.00
2023-01-18T00:57:42.015Z,18.00
2023-01-18T01:00:30.073Z,17.90
2023-01-18T01:03:18.070Z,17.90
2023-01-18T01:06:23.914Z,17.90
2023-01-18T01:09:12.425Z,17.80
2023-01-18T01:12:19.280Z,17.80
2023-01-18T01:15:26.292Z,17.70
2023-01-18T01:18:32.119Z,17.70
2023-01-18T01:21:37.897Z,17.50
2023-01-18T01:24:44.360Z,17.50
2023-01-18T01:27:33.661Z,17.40
2023-01-18T01:30:21.643Z,17.40
2023-01-18T01:33:09.637Z,17.40
2023-01-18T01:35:58.381Z,17.30
2023-01-18T01:38:46.622Z,17.40
2023-01-18T01:41:36.332Z,17.30
2023-01-18T01:44:50.004Z,17.30
2023-01-18T01:47:42.172Z,17.20
2023-01-18T01:50:35.330Z,17.20
2023-01-18T01:53:23.939Z,17.20
2023-01-18T01:56:13.347Z,17.20
2023-01-18T01:59:03.618Z,17.40
2023-01-18T02:01:53.062Z,17.50
2023-01-18T02:04:44.180Z,17.60
2023-01-18T02:07:34.215Z,17.50
2023-01-18T02:10:22.765Z,17.70
2023-01-18T02:13:12.092Z,17.80
2023-01-18T02:16:09.774Z,17.80
2023-01-18T02:19:08.583Z,17.80
2023-01-18T02:21:59.707Z,17.70
2023-01-18T02:25:16.863Z,17.70
2023-01-18T02:28:10.375Z,17.60
2023-01-18T02:31:08.683Z,17.60
2023-01-18T02:34:04.901Z,17.60
2023-01-18T02:37:03.428Z,17.60
2023-01-18T02:40:01.983Z,17.50
2023-01-18T02:43:08.345Z,17.50
2023-01-18T02:46:18.584Z,17.50
2023-01-18T02:49:09.283Z,17.50
2023-01-18T02:52:02.086Z,17.50
2023-01-18T02:54:50.110Z,17.50
2023-01-18T02:57:38.867Z,17.40
2023-01-18T03:00:27.865Z,17.40
2023-01-18T03:03:20.939Z,17.40
2023-01-18T03:06:09.812Z,17.30
2023-01-18T03:08:59.508Z,17.30
2023-01-18T03:11:55.893Z,17.30
2023-01-18T03:14:53.607Z,17.20
2023-01-18T03:17:44.768Z,17.30
2023-01-18T03:20:40.407Z,17.50
2023-01-18T03:23:41.892Z,17.60
2023-01-18T03:26:31.023Z,17.60
2023-01-18T03:29:38.837Z,17.70
2023-01-18T03:32:44.724Z,17.80
2023-01-18T03:35:34.795Z,17.80
2023-01-18T03:38:23.532Z,17.90
2023-01-18T03:41:13.302Z,18.00
2023-01-18T03:44:08.108Z,17.80
2023-01-18T03:46:57.565Z,17.90
2023-01-18T03:49:45.590Z,17.90
2023-01-18T03:52:41.909Z,18.00
2023-01-18T03:55:38.330Z,18.00
2023-01-18T03:58:34.019Z,17.90
2023-01-18T04:01:22.684Z,17.90
2023-01-18T04:04:10.781Z,17.80
2023-01-18T04:06:58.890Z,17.80
2023-01-18T04:09:48.475Z,17.70
2023-01-18T04:12:36.481Z,17.70
2023-01-18T04:15:24.704Z,17.70
2023-01-18T04:18:12.732Z,17.50
2023-01-18T04:21:00.978Z,17.50
2023-01-18T04:23:48.978Z,17.40
2023-01-18T04:26:38.398Z,17.40
2023-01-18T04:29:26.514Z,17.30
2023-01-18T04:32:14.501Z,17.20
2023-01-18T04:35:02.571Z,17.20
2023-01-18T04:37:52.879Z,17.20
2023-01-18T04:40:40.903Z,17.10
2023-01-18T04:43:30.674Z,17.10
2023-01-18T04:46:18.928Z,17.10
2023-01-18T04:49:08.158Z,17.20
2023-01-18T04:51:56.293Z,17.10
2023-01-18T04:54:44.404Z,17.10
2023-01-18T04:57:32.406Z,17.10
2023-01-18T05:00:24.082Z,17.20
2023-01-18T05:03:13.476Z,17.20
2023-01-18T05:06:01.452Z,17.30
2023-01-18T05:08:49.784Z,17.30
2023-01-18T05:11:37.796Z,17.30
2023-01-18T05:14:25.854Z,17.40
2023-01-18T05:17:15.191Z,17.20
2023-01-18T05:20:04.380Z,17.20
2023-01-18T05:22:52.389Z,17.20
2023-01-18T05:25:40.371Z,17.20
2023-01-18T05:28:29.430Z,17.20
2023-01-18T05:31:21.054Z,17.20
2023-01-18T05:34:10.513Z,17.10
2023-01-18T05:36:58.816Z,17.10
2023-01-18T05:39:47.300Z,17.10
2023-01-18T05:42:35.315Z,17.10
2023-01-18T05:45:23.289Z,17.10
2023-01-18T05:48:12.029Z,17.20
2023-01-18T05:51:01.434Z,17.10
2023-01-18T05:53:49.425Z,17.00
2023-01-18T05:56:37.421Z,17.00
2023-01-18T05:59:25.646Z,17.00
2023-01-18T06:02:13.684Z,17.00
2023-01-18T06:05:01.699Z,17.00
2023-01-18T06:07:51.097Z,17.40
2023-01-18T06:10:39.084Z,17.20
2023-01-18T06:13:29.447Z,17.30
2023-01-18T06:16:17.532Z,17.40
2023-01-18T06:19:05.628Z,17.50
2023-01-18T06:21:54.321Z,17.60
2023-01-18T06:24:43.621Z,17.60
2023-01-18T06:27:31.633Z,17.70
2023-01-18T06:30:20.386Z,17.70
2023-01-18T06:33:08.755Z,17.70
2023-01-18T06:35:56.877Z,17.80
2023-01-18T06:38:44.877Z,17.80
2023-01-18T06:41:34.280Z,17.80
2023-01-18T06:44:22.348Z,17.80
2023-01-18T06:47:10.527Z,17.80
2023-01-18T06:49:58.524Z,17.90
2023-01-18T06:52:46.778Z,17.80
2023-01-18T06:55:35.552Z,17.70
2023-01-18T06:58:25.793Z,17.70
2023-01-18T07:01:13.933Z,17.60
2023-01-18T07:04:02.064Z,17.50
2023-01-18T07:06:50.179Z,17.50
2023-01-18T07:09:38.394Z,17.40
2023-01-18T07:12:26.697Z,17.30
2023-01-18T07:15:21.935Z,17.40
2023-01-18T07:18:10.754Z,17.30
2023-01-18T07:21:00.491Z,17.20
2023-01-18T07:23:48.494Z,17.20
2023-01-18T07:26:36.519Z,17.10
2023-01-18T07:29:24.622Z,17.20
2023-01-18T07:32:14.014Z,17.10
2023-01-18T07:35:02.024Z,17.00
2023-01-18T07:37:52.167Z,17.00
2023-01-18T07:40:40.312Z,17.00
2023-01-18T07:43:28.652Z,17.00
2023-01-18T07:46:20.615Z,17.00
2023-01-18T07:49:10.111Z,17.10
2023-01-18T07:51:58.311Z,17.20
2023-01-18T07:54:46.502Z,17.30
2023-01-18T07:57:34.574Z,17.40
2023-01-18T08:00:23.275Z,17.50
2023-01-18T08:03:15.849Z,17.50
2023-01-18T08:06:07.385Z,17.60
2023-01-18T08:08:56.354Z,17.70
2023-01-18T08:11:44.395Z,17.70
2023-01-18T08:14:32.451Z,17.80
2023-01-18T08:17:20.540Z,17.70
2023-01-18T08:20:09.938Z,17.80
2023-01-18T08:23:00.633Z,17.80
2023-01-18T08:25:49.623Z,17.80
2023-01-18T08:28:37.794Z,17.70
2023-01-18T08:31:25.864Z,17.70
2023-01-18T08:34:14.091Z,17.70
2023-01-18T08:37:02.143Z,17.70
2023-01-18T08:39:51.545Z,17.70
2023-01-18T08:42:39.573Z,17.70
2023-01-18T08:45:28.059Z,17.60
2023-01-18T08:48:16.060Z,17.60
2023-01-18T08:51:04.610Z,17.60
2023-01-18T08:53:54.498Z,17.60
2023-01-18T08:56:44.010Z,17.50
2023-01-18T08:59:32.122Z,17.50
2023-01-18T09:02:20.119Z,17.50
2023-01-18T09:05:08.857Z,17.50
2023-01-18T09:07:57.859Z,17.40
2023-01-18T09:10:46.173Z,17.40
2023-01-18T09:13:35.916Z,17.40
2023-01-18T09:16:24.227Z,17.30
2023-01-18T09:19:12.510Z,17.40
2023-01-18T09:22:00.556Z,17.50
2023-01-18T09:24:48.608Z,17.60
2023-01-18T09:27:36.730Z,17.60
2023-01-18T09:30:26.126Z,17.60
2023-01-18T09:33:14.147Z,17.70
2023-01-18T09:36:04.031Z,17.70
2023-01-18T09:38:52.157Z,17.80
2023-01-18T09:41:43.113Z,17.90
2023-01-18T09:44:34.562Z,18.00
2023-01-18T09:47:26.716Z,18.20
2023-01-18T09:50:16.712Z,18.20
2023-01-18T09:53:17.257Z,18.40
2023-01-18T09:56:12.210Z,18.60
2023-01-18T09:59:11.442Z,18.70
2023-01-18T10:02:02.480Z,18.90
2023-01-18T10:04:55.929Z,19.00
2023-01-18T10:07:52.069Z,19.10
2023-01-18T10:10:43.872Z,19.20
2023-01-18T10:13:43.809Z,19.30
2023-01-18T10:16:34.024Z,19.50
2023-01-18T10:19:27.842Z,19.50
2023-01-18T10:22:23.227Z,19.60
2023-01-18T10:25:16.939Z,19.60
2023-01-18T10:28:25.101Z,19.70
2023-01-18T10:31:23.897Z,19.70
2023-01-18T10:34:17.616Z,19.80
2023-01-18T10:37:14.421Z,19.90
2023-01-18T10:40:06.030Z,19.90
2023-01-18T10:42:59.736Z,20.00
2023-01-18T10:45:48.262Z,20.10
2023-01-18T10:48:36.333Z,20.10
2023-01-18T10:51:31.894Z,20.20
2023-01-18T10:54:26.498Z,20.30
2023-01-18T10:57:22.732Z,20.30
2023-01-18T11:00:22.024Z,20.40
2023-01-18T11:03:15.798Z,20.40
2023-01-18T11:06:06.850Z,20.50
2023-01-18T11:08:55.320Z,20.40
2023-01-18T11:12:01.167Z,20.50
2023-01-18T11:14:50.567Z,20.50
2023-01-18T11:17:38.591Z,20.50
2023-01-18T11:20:33.953Z,20.50
2023-01-18T11:23:25.458Z,20.50
2023-01-18T11:26:17.220Z,20.50
2023-01-18T11:29:07.836Z,20.60
2023-01-18T11:32:01.841Z,20.70
2023-01-18T11:34:53.073Z,20.60
2023-01-18T11:37:43.496Z,20.60
2023-01-18T11:40:32.902Z,20.70
2023-01-18T11:43:23.594Z,20.80
2023-01-18T11:46:32.236Z,20.70
2023-01-18T11:49:37.733Z,20.90
2023-01-18T11:52:38.140Z,20.90
2023-01-18T11:55:32.469Z,20.90
2023-01-18T11:58:25.426Z,20.90
2023-01-18T12:01:38.147Z,21.00
2023-01-18T12:04:39.931Z,21.00
2023-01-18T12:07:40.445Z,21.00
2023-01-18T12:10:34.011Z,21.00
2023-01-18T12:13:35.964Z,21.00
2023-01-18T12:16:35.326Z,21.10
2023-01-18T12:19:49.049Z,21.10
2023-01-18T12:23:09.159Z,21.10
2023-01-18T12:26:17.172Z,21.10
2023-01-18T12:29:17.805Z,21.20
2023-01-18T12:32:20.386Z,21.20
2023-01-18T12:35:28.360Z,21.10
2023-01-18T12:38:22.878Z,21.20
2023-01-18T12:41:34.157Z,21.20
2023-01-18T12:44:34.474Z,21.20
2023-01-18T12:47:35.151Z,21.20
2023-01-18T12:50:27.673Z,21.20
2023-01-18T12:53:21.092Z,21.20
2023-01-18T12:56:15.444Z,21.40
2023-01-18T12:59:08.093Z,21.20
2023-01-18T13:02:00.437Z,21.20
2023-01-18T13:04:54.547Z,21.30
2023-01-18T13:07:47.481Z,21.30
2023-01-18T13:10:37.355Z,21.30
2023-01-18T13:13:29.038Z,21.20
2023-01-18T13:16:26.351Z,20.90
2023-01-18T13:19:20.429Z,21.20
2023-01-18T13:22:15.792Z,21.20
2023-01-18T13:25:35.758Z,21.20
2023-01-18T13:28:26.064Z,21.10
2023-01-18T13:31:14.402Z,21.00
2023-01-18T13:34:03.490Z,20.90
2023-01-18T13:36:53.313Z,20.90
2023-01-18T13:39:47.969Z,20.80
2023-01-18T13:42:39.126Z,20.80
2023-01-18T13:45:29.004Z,20.80
2023-01-18T13:48:41.428Z,20.90
2023-01-18T13:51:53.112Z,21.00
2023-01-18T13:55:06.526Z,21.00
2023-01-18T13:57:57.216Z,21.10
2023-01-18T14:00:49.076Z,21.10
2023-01-18T14:03:40.153Z,21.10
2023-01-18T14:06:34.987Z,21.10
2023-01-18T14:09:38.631Z,21.20
2023-01-18T14:12:49.711Z,21.10
2023-01-18T14:15:52.126Z,21.10
2023-01-18T14:18:49.440Z,21.10
2023-01-18T14:21:52.985Z,21.00
2023-01-18T14:24:59.423Z,21.00
2023-01-18T14:27:51.499Z,21.00
2023-01-18T14:30:41.232Z,20.90
2023-01-18T14:33:33.900Z,21.00
2023-01-18T14:36:23.896Z,20.90
2023-01-18T14:39:17.568Z,21.10
2023-01-18T14:42:06.620Z,21.10
2023-01-18T14:44:58.757Z,21.20
2023-01-18T14:47:48.330Z,21.30
2023-01-18T14:50:45.754Z,21.20
2023-01-18T14:53:38.226Z,21.20
2023-01-18T14:56:27.502Z,21.20
2023-01-18T14:59:21.717Z,21.20
2023-01-18T15:02:18.859Z,21.20
2023-01-18T15:05:13.970Z,21.20
2023-01-18T15:08:03.473Z,21.30
2023-01-18T15:10:51.665Z,21.30
2023-01-18T15:13:50.309Z,21.30
2023-01-18T15:16:39.177Z,21.30
2023-01-18T15:19:34.266Z,21.30
2023-01-18T15:22:29.218Z,21.30
2023-01-18T15:25:25.588Z,21.30
2023-01-18T15:28:23.602Z,21.30
2023-01-18T15:31:14.954Z,21.20
2023-01-18T15:34:03.119Z,21.20
2023-01-18T15:36:51.820Z,21.10
2023-01-18T15:39:49.418Z,21.10
2023-01-18T15:42:43.407Z,21.10
2023-01-18T15:45:33.960Z,21.10
2023-01-18T15:48:23.315Z,21.10
2023-01-18T15:51:11.519Z,21.10
2023-01-18T15:53:59.573Z,21.10
2023-01-18T15:56:48.800Z,21.10
2023-01-18T15:59:38.431Z,21.20
2023-01-18T16:02:26.661Z,21.20
2023-01-18T16:05:23.129Z,21.20
2023-01-18T16:08:18.711Z,21.20
2023-01-18T16:11:07.073Z,21.20
2023-01-18T16:13:58.850Z,21.20
2023-01-18T16:16:49.162Z,21.20
2023-01-18T16:19:41.361Z,21.20
2023-01-18T16:22:32.773Z,21.20
2023-01-18T16:25:24.039Z,21.10
2023-01-18T16:28:12.132Z,21.30
2023-01-18T16:31:03.234Z,21.30
2023-01-18T16:33:52.710Z,21.50
2023-01-18T16:36:42.552Z,21.30
2023-01-18T16:39:32.809Z,21.40
2023-01-18T16:42:26.605Z,21.30
2023-01-18T16:45:18.081Z,21.30
2023-01-18T16:48:07.091Z,21.30
2023-01-18T16:50:59.413Z,21.30
2023-01-18T16:53:49.455Z,21.30
2023-01-18T16:56:39.123Z,21.30
2023-01-18T16:59:27.151Z,21.30
2023-01-18T17:02:15.855Z,21.20
2023-01-18T17:05:04.013Z,21.30
2023-01-18T17:07:53.395Z,21.30
2023-01-18T17:10:43.590Z,21.30
2023-01-18T17:13:31.644Z,21.30
2023-01-18T17:16:20.680Z,21.20
2023-01-18T17:19:12.225Z,21.30
2023-01-18T17:22:00.335Z,21.30
2023-01-18T17:24:53.278Z,21.30
2023-01-18T17:27:41.709Z,21.30
2023-01-18T17:30:29.937Z,21.20
2023-01-18T17:33:20.347Z,21.20
2023-01-18T17:36:09.665Z,21.10
2023-01-18T17:38:57.726Z,21.20
2023-01-18T17:41:47.217Z,21.10
2023-01-18T17:44:37.377Z,21.20
2023-01-18T17:47:27.443Z,21.10
2023-01-18T17:50:21.620Z,21.20
2023-01-18T17:53:10.397Z,21.10
2023-01-18T17:55:58.439Z,21.10
2023-01-18T17:58:49.336Z,21.20
2023-01-18T18:01:37.845Z,21.20
2023-01-18T18:04:25.939Z,21.20
2023-01-18T18:07:13.949Z,21.20
2023-01-18T18:10:02.152Z,21.20
2023-01-18T18:12:50.277Z,21.10
2023-01-18T18:15:39.747Z,21.10
2023-01-18T18:18:28.043Z,21.10
2023-01-18T18:21:16.676Z,21.20
2023-01-18T18:24:04.871Z,21.20
2023-01-18T18:26:53.350Z,21.20
2023-01-18T18:29:41.779Z,21.20
2023-01-18T18:32:31.207Z,21.20
2023-01-18T18:35:25.434Z,21.20
2023-01-18T18:38:15.448Z,21.90
2023-01-18T18:41:04.862Z,21.10
2023-01-18T18:43:52.974Z,21.20
2023-01-18T18:46:41.163Z,21.20
2023-01-18T18:49:30.592Z,21.20
2023-01-18T18:52:18.687Z,21.20
2023-01-18T18:55:09.036Z,21.20
2023-01-18T18:57:58.480Z,21.20
2023-01-18T19:00:46.610Z,21.20
2023-01-18T19:03:36.006Z,21.20
2023-01-18T19:06:25.821Z,21.00
2023-01-18T19:09:13.967Z,21.10
2023-01-18T19:12:02.156Z,21.20
2023-01-18T19:14:50.240Z,21.10
2023-01-18T19:17:38.325Z,21.10
2023-01-18T19:20:26.429Z,21.10
2023-01-18T19:23:15.823Z,21.20
2023-01-18T19:26:03.994Z,21.10
2023-01-18T19:28:52.066Z,21.10
2023-01-18T19:31:40.372Z,21.10
2023-01-18T19:34:28.571Z,21.10
2023-01-18T19:37:16.642Z,21.00
2023-01-18T19:40:07.398Z,21.00
2023-01-18T19:42:55.819Z,21.00
2023-01-18T19:45:44.048Z,21.00
2023-01-18T19:48:32.862Z,21.00
2023-01-18T19:51:22.739Z,21.00
2023-01-18T19:54:12.518Z,21.00
2023-01-18T19:57:02.572Z,21.10
2023-01-18T19:59:50.655Z,21.10
2023-01-18T20:02:41.387Z,21.10
2023-01-18T20:05:29.531Z,21.10
2023-01-18T20:08:17.557Z,21.10
2023-01-18T20:11:06.464Z,21.10
2023-01-18T20:13:55.912Z,21.10
2023-01-18T20:16:46.027Z,21.10
2023-01-18T20:19:34.320Z,21.00
2023-01-18T20:22:22.821Z,21.10
2023-01-18T20:25:11.487Z,21.00
2023-01-18T20:27:59.521Z,21.10
2023-01-18T20:30:52.220Z,21.10
2023-01-18T20:33:40.252Z,21.00
2023-01-18T20:36:29.262Z,21.00
2023-01-18T20:39:17.786Z,21.00
2023-01-18T20:42:06.171Z,21.00
2023-01-18T20:45:00.263Z,21.00
2023-01-18T20:47:49.642Z,21.10
2023-01-18T20:50:38.408Z,21.10
2023-01-18T20:53:26.658Z,21.10
2023-01-18T20:56:28.345Z,20.90
2023-01-18T20:59:17.125Z,21.00
2023-01-18T21:02:05.343Z,21.00
2023-01-18T21:04:54.845Z,21.00
2023-01-18T21:07:42.990Z,21.00
2023-01-18T21:10:38.514Z,21.00
2023-01-18T21:13:26.714Z,21.00
2023-01-18T21:16:14.796Z,21.10
2023-01-18T21:19:02.871Z,21.00
2023-01-18T21:21:52.212Z,21.10
2023-01-18T21:24:40.284Z,21.00
2023-01-18T21:27:28.347Z,21.00
2023-01-18T21:30:16.954Z,21.10
2023-01-18T21:33:05.029Z,21.10
2023-01-18T21:35:54.084Z,21.10
2023-01-18T21:38:43.515Z,21.00
2023-01-18T21:41:57.482Z,21.00
2023-01-18T21:45:03.133Z,21.00
2023-01-18T21:47:51.198Z,20.90
2023-01-18T21:50:58.082Z,20.90
2023-01-18T21:54:05.213Z,20.80
2023-01-18T21:56:53.247Z,20.80
2023-01-18T21:59:41.310Z,20.80
2023-01-18T22:02:29.434Z,20.80
2023-01-18T22:05:17.696Z,21.00
2023-01-18T22:08:06.252Z,20.90
2023-01-18T22:10:55.677Z,20.80
2023-01-18T22:13:43.844Z,20.80
2023-01-18T22:16:31.906Z,20.90
2023-01-18T22:19:20.046Z,20.90
2023-01-18T22:22:08.086Z,20.90
2023-01-18T22:24:56.488Z,20.90
2023-01-18T22:27:45.864Z,20.90
2023-01-18T22:30:33.933Z,20.80
2023-01-18T22:33:22.032Z,20.80
2023-01-18T22:36:11.052Z,20.70
2023-01-18T22:38:59.138Z,20.80
2023-01-18T22:41:47.137Z,20.80
2023-01-18T22:44:37.467Z,20.80
2023-01-18T22:47:25.491Z,20.80
2023-01-18T22:50:13.576Z,20.80
2023-01-18T22:53:01.598Z,20.80
2023-01-18T22:55:50.381Z,20.80
2023-01-18T22:58:38.552Z,20.80
2023-01-18T23:01:30.798Z,20.80
2023-01-18T23:04:18.885Z,20.80
2023-01-18T23:07:06.990Z,20.80
2023-01-18T23:09:55.117Z,20.90
2023-01-18T23:12:43.169Z,20.90
2023-01-18T23:15:48.585Z,20.90
2023-01-18T23:18:38.004Z,20.90
2023-01-18T23:21:26.112Z,20.90
2023-01-18T23:24:14.273Z,21.00
2023-01-18T23:27:02.392Z,20.90
2023-01-18T23:29:55.364Z,21.00
2023-01-18T23:32:43.513Z,20.90
2023-01-18T23:35:32.871Z,20.90
2023-01-18T23:38:20.979Z,20.90
2023-01-18T23:41:27.193Z,20.90
2023-01-18T23:44:33.107Z,20.90
2023-01-18T23:47:38.984Z,20.80
2023-01-18T23:50:44.760Z,20.80
2023-01-18T23:53:51.762Z,20.80
2023-01-18T23:56:39.804Z,20.80
2023-01-18T23:59:27.846Z,20.80
